GLO7185 SBCF-SBPS
Flight info
| Callsign | GLO7185 |
|---|---|
| Flight time | 1h 14m |
| Altitude | 33000 |
| Route | KADOR DCT POSMU DCT OSUNO |
| Aircraft | B738/M-SDE2E3FGHIRWXY/LB1 |
Departure
| Time | 2026-04-21 13:49 |
|---|---|
| Airport | Tancredo Neves International Airport (SBCF) |
Arrival
| Time | 2026-04-21 15:03 |
|---|---|
| Airport | Porto Seguro International Airport (SBPS) |
| Time | Latitude | Longitude | Altitude | Speed | Heading |
|---|---|---|---|---|---|
| 2026-04-21 13:38 | -19.63217 | -43.96459 | 2758 ft | 0 kts | 67° |
| 2026-04-21 13:39 | -19.63217 | -43.96460 | 2758 ft | 1 kts | 67° |
| 2026-04-21 13:39 | -19.63223 | -43.96475 | 2758 ft | 2 kts | 67° |
| 2026-04-21 13:39 | -19.63227 | -43.96484 | 2758 ft | 1 kts | 67° |
| 2026-04-21 13:40 | -19.63234 | -43.96497 | 2759 ft | 2 kts | 41° |
| 2026-04-21 13:40 | -19.63247 | -43.96506 | 2759 ft | 2 kts | 20° |
| 2026-04-21 13:40 | -19.63261 | -43.96509 | 2760 ft | 2 kts | 357° |
| 2026-04-21 13:40 | -19.63276 | -43.96506 | 2760 ft | 2 kts | 335° |
| 2026-04-21 13:41 | -19.63283 | -43.96501 | 2760 ft | 1 kts | 322° |
| 2026-04-21 13:41 | -19.63287 | -43.96498 | 2760 ft | 0 kts | 321° |
| 2026-04-21 13:41 | -19.63287 | -43.96497 | 2760 ft | 0 kts | 321° |
| 2026-04-21 13:41 | -19.63287 | -43.96498 | 2760 ft | 0 kts | 321° |
| 2026-04-21 13:44 | -19.63270 | -43.96511 | 2760 ft | 6 kts | 322° |
| 2026-04-21 13:44 | -19.63222 | -43.96550 | 2760 ft | 10 kts | 323° |
| 2026-04-21 13:44 | -19.63202 | -43.96623 | 2761 ft | 12 kts | 243° |
| 2026-04-21 13:44 | -19.63257 | -43.96699 | 2761 ft | 13 kts | 244° |
| 2026-04-21 13:45 | -19.63214 | -43.96790 | 2761 ft | 16 kts | 317° |
| 2026-04-21 13:45 | -19.63120 | -43.96875 | 2761 ft | 19 kts | 320° |
| 2026-04-21 13:45 | -19.63014 | -43.96976 | 2761 ft | 21 kts | 317° |
| 2026-04-21 13:45 | -19.62898 | -43.97086 | 2761 ft | 23 kts | 318° |
| 2026-04-21 13:46 | -19.62773 | -43.97201 | 2761 ft | 24 kts | 318° |
| 2026-04-21 13:46 | -19.62640 | -43.97324 | 2761 ft | 26 kts | 319° |
| 2026-04-21 13:46 | -19.62504 | -43.97450 | 2761 ft | 17 kts | 319° |
| 2026-04-21 13:46 | -19.62429 | -43.97519 | 2761 ft | 14 kts | 319° |
| 2026-04-21 13:47 | -19.62346 | -43.97596 | 2761 ft | 16 kts | 318° |
| 2026-04-21 13:47 | -19.62262 | -43.97674 | 2761 ft | 13 kts | 319° |
| 2026-04-21 13:47 | -19.62253 | -43.97752 | 2761 ft | 12 kts | 228° |
| 2026-04-21 13:47 | -19.62334 | -43.97781 | 2761 ft | 13 kts | 181° |
| 2026-04-21 13:48 | -19.62448 | -43.97728 | 2761 ft | 28 kts | 140° |
| 2026-04-21 13:48 | -19.62730 | -43.97470 | 2761 ft | 84 kts | 139° |
| 2026-04-21 13:48 | -19.63342 | -43.96904 | 2761 ft | 145 kts | 139° |
| 2026-04-21 13:48 | -19.64226 | -43.96091 | 2803 ft | 189 kts | 139° |
| 2026-04-21 13:49 | -19.65249 | -43.95156 | 3409 ft | 195 kts | 139° |
| 2026-04-21 13:49 | -19.66219 | -43.94215 | 4297 ft | 191 kts | 136° |
| 2026-04-21 13:49 | -19.67163 | -43.93122 | 4680 ft | 214 kts | 125° |
| 2026-04-21 13:49 | -19.67845 | -43.91666 | 5160 ft | 232 kts | 105° |
| 2026-04-21 13:50 | -19.68025 | -43.89936 | 5686 ft | 246 kts | 86° |
| 2026-04-21 13:50 | -19.67640 | -43.88114 | 6079 ft | 260 kts | 67° |
| 2026-04-21 13:50 | -19.66766 | -43.86476 | 6996 ft | 252 kts | 54° |
| 2026-04-21 13:50 | -19.65726 | -43.84915 | 7309 ft | 270 kts | 61° |
| 2026-04-21 13:51 | -19.65055 | -43.83063 | 7992 ft | 270 kts | 75° |
| 2026-04-21 13:51 | -19.64598 | -43.81134 | 8642 ft | 274 kts | 76° |
| 2026-04-21 13:51 | -19.64090 | -43.79181 | 9485 ft | 276 kts | 73° |
| 2026-04-21 13:51 | -19.63513 | -43.77234 | 10059 ft | 282 kts | 72° |
| 2026-04-21 13:52 | -19.62862 | -43.75199 | 10498 ft | 299 kts | 71° |
| 2026-04-21 13:52 | -19.62131 | -43.73071 | 10928 ft | 316 kts | 67° |
| 2026-04-21 13:52 | -19.61045 | -43.70977 | 11273 ft | 333 kts | 56° |
| 2026-04-21 13:52 | -19.59630 | -43.69018 | 11336 ft | 347 kts | 50° |
| 2026-04-21 13:53 | -19.58025 | -43.67062 | 12234 ft | 346 kts | 49° |
| 2026-04-21 13:53 | -19.56437 | -43.65156 | 13035 ft | 349 kts | 49° |
| 2026-04-21 13:53 | -19.54849 | -43.63214 | 13790 ft | 353 kts | 50° |
| 2026-04-21 13:53 | -19.53255 | -43.61219 | 14529 ft | 357 kts | 50° |
| 2026-04-21 13:54 | -19.51658 | -43.59187 | 15249 ft | 360 kts | 51° |
| 2026-04-21 13:54 | -19.50080 | -43.57124 | 15949 ft | 364 kts | 52° |
| 2026-04-21 13:54 | -19.48522 | -43.54994 | 16635 ft | 368 kts | 53° |
| 2026-04-21 13:54 | -19.46971 | -43.52829 | 17303 ft | 372 kts | 53° |
| 2026-04-21 13:55 | -19.45406 | -43.50639 | 17946 ft | 375 kts | 53° |
| 2026-04-21 13:55 | -19.43839 | -43.48452 | 18552 ft | 379 kts | 53° |
| 2026-04-21 13:55 | -19.42765 | -43.46960 | 18959 ft | 381 kts | 53° |
| 2026-04-21 13:55 | -19.40614 | -43.43985 | 19740 ft | 385 kts | 53° |
| 2026-04-21 13:56 | -19.38958 | -43.41704 | 20318 ft | 389 kts | 53° |
| 2026-04-21 13:56 | -19.37305 | -43.39430 | 20874 ft | 392 kts | 53° |
| 2026-04-21 13:56 | -19.35640 | -43.37143 | 21415 ft | 395 kts | 53° |
| 2026-04-21 13:56 | -19.33961 | -43.34836 | 21943 ft | 399 kts | 52° |
| 2026-04-21 13:57 | -19.32266 | -43.32505 | 22459 ft | 402 kts | 52° |
| 2026-04-21 13:57 | -19.30562 | -43.30159 | 22962 ft | 405 kts | 52° |
| 2026-04-21 13:57 | -19.28848 | -43.27797 | 23451 ft | 408 kts | 52° |
| 2026-04-21 13:57 | -19.27108 | -43.25400 | 23932 ft | 411 kts | 52° |
| 2026-04-21 13:58 | -19.25360 | -43.22993 | 24402 ft | 414 kts | 52° |
| 2026-04-21 13:58 | -19.23600 | -43.20570 | 24859 ft | 417 kts | 52° |
| 2026-04-21 13:58 | -19.21846 | -43.18157 | 25302 ft | 420 kts | 52° |
| 2026-04-21 13:58 | -19.20057 | -43.15697 | 25738 ft | 422 kts | 52° |
| 2026-04-21 13:59 | -19.18249 | -43.13211 | 26166 ft | 425 kts | 52° |
| 2026-04-21 13:59 | -19.16461 | -43.10755 | 26578 ft | 428 kts | 52° |
| 2026-04-21 13:59 | -19.14641 | -43.08255 | 26984 ft | 431 kts | 52° |
| 2026-04-21 13:59 | -19.12808 | -43.05739 | 27382 ft | 433 kts | 52° |
| 2026-04-21 14:00 | -19.10967 | -43.03212 | 27772 ft | 436 kts | 52° |
| 2026-04-21 14:00 | -19.09108 | -43.00663 | 28245 ft | 436 kts | 52° |
| 2026-04-21 14:00 | -19.07259 | -42.98128 | 28846 ft | 433 kts | 52° |
| 2026-04-21 14:00 | -19.05449 | -42.95647 | 29343 ft | 431 kts | 52° |
| 2026-04-21 14:01 | -19.03602 | -42.93115 | 29821 ft | 430 kts | 52° |
| 2026-04-21 14:01 | -19.01795 | -42.90640 | 30274 ft | 429 kts | 52° |
| 2026-04-21 14:01 | -18.99958 | -42.88124 | 30718 ft | 429 kts | 52° |
| 2026-04-21 14:01 | -18.98141 | -42.85636 | 31144 ft | 428 kts | 52° |
| 2026-04-21 14:02 | -18.96955 | -42.84013 | 31417 ft | 427 kts | 52° |
| 2026-04-21 14:02 | -18.94530 | -42.80694 | 31955 ft | 426 kts | 53° |
| 2026-04-21 14:02 | -18.92806 | -42.78162 | 32333 ft | 426 kts | 57° |
| 2026-04-21 14:03 | -18.89796 | -42.72779 | 32990 ft | 425 kts | 62° |
| 2026-04-21 14:03 | -18.87026 | -42.67261 | 33000 ft | 425 kts | 63° |
| 2026-04-21 14:04 | -18.84295 | -42.61752 | 33001 ft | 423 kts | 62° |
| 2026-04-21 14:04 | -18.81551 | -42.56264 | 33001 ft | 424 kts | 62° |
| 2026-04-21 14:05 | -18.78796 | -42.50801 | 33001 ft | 424 kts | 62° |
| 2026-04-21 14:05 | -18.76017 | -42.45318 | 33000 ft | 424 kts | 62° |
| 2026-04-21 14:06 | -18.73206 | -42.39834 | 33001 ft | 424 kts | 62° |
| 2026-04-21 14:06 | -18.70393 | -42.34401 | 33001 ft | 424 kts | 61° |
| 2026-04-21 14:07 | -18.67565 | -42.28953 | 33001 ft | 424 kts | 61° |
| 2026-04-21 14:07 | -18.64749 | -42.23526 | 33001 ft | 424 kts | 61° |
| 2026-04-21 14:08 | -18.61920 | -42.18076 | 33001 ft | 424 kts | 61° |
| 2026-04-21 14:08 | -18.59103 | -42.12650 | 33001 ft | 424 kts | 61° |
| 2026-04-21 14:09 | -18.56275 | -42.07208 | 33001 ft | 424 kts | 61° |
| 2026-04-21 14:09 | -18.53454 | -42.01783 | 33001 ft | 424 kts | 61° |
| 2026-04-21 14:10 | -18.51090 | -41.97242 | 33001 ft | 424 kts | 61° |
| 2026-04-21 14:10 | -18.47778 | -41.90883 | 33001 ft | 424 kts | 61° |
| 2026-04-21 14:11 | -18.44947 | -41.85455 | 33001 ft | 424 kts | 61° |
| 2026-04-21 14:11 | -18.42112 | -41.80023 | 33001 ft | 424 kts | 61° |
| 2026-04-21 14:12 | -18.39288 | -41.74615 | 33001 ft | 423 kts | 61° |
| 2026-04-21 14:12 | -18.36931 | -41.70106 | 33001 ft | 423 kts | 61° |
| 2026-04-21 14:13 | -18.33620 | -41.63779 | 33001 ft | 423 kts | 61° |
| 2026-04-21 14:13 | -18.30787 | -41.58369 | 33001 ft | 423 kts | 61° |
| 2026-04-21 14:14 | -18.27940 | -41.52938 | 33001 ft | 423 kts | 61° |
| 2026-04-21 14:14 | -18.25105 | -41.47533 | 33001 ft | 423 kts | 61° |
| 2026-04-21 14:15 | -18.22264 | -41.42123 | 33001 ft | 423 kts | 61° |
| 2026-04-21 14:15 | -18.19424 | -41.36719 | 33001 ft | 423 kts | 61° |
| 2026-04-21 14:16 | -18.16575 | -41.31302 | 33001 ft | 423 kts | 61° |
| 2026-04-21 14:16 | -18.13740 | -41.25915 | 33001 ft | 423 kts | 61° |
| 2026-04-21 14:17 | -18.10891 | -41.20509 | 33001 ft | 423 kts | 61° |
| 2026-04-21 14:17 | -18.08508 | -41.15989 | 33001 ft | 423 kts | 61° |
| 2026-04-21 14:18 | -18.05183 | -41.09689 | 33001 ft | 423 kts | 61° |
| 2026-04-21 14:18 | -18.02333 | -41.04295 | 33001 ft | 423 kts | 61° |
| 2026-04-21 14:19 | -17.99483 | -40.98904 | 33001 ft | 423 kts | 61° |
| 2026-04-21 14:19 | -17.96622 | -40.93496 | 33001 ft | 423 kts | 61° |
| 2026-04-21 14:20 | -17.93770 | -40.88111 | 33001 ft | 422 kts | 61° |
| 2026-04-21 14:20 | -17.90933 | -40.82757 | 33001 ft | 422 kts | 61° |
| 2026-04-21 14:21 | -17.88063 | -40.77346 | 33001 ft | 422 kts | 61° |
| 2026-04-21 14:21 | -17.85204 | -40.71961 | 33001 ft | 422 kts | 61° |
| 2026-04-21 14:22 | -17.82360 | -40.66607 | 33001 ft | 422 kts | 61° |
| 2026-04-21 14:22 | -17.79979 | -40.62130 | 33001 ft | 422 kts | 61° |
| 2026-04-21 14:23 | -17.76642 | -40.55861 | 33001 ft | 422 kts | 61° |
| 2026-04-21 14:23 | -17.73794 | -40.50514 | 32955 ft | 408 kts | 61° |
| 2026-04-21 14:23 | -17.72431 | -40.47955 | 32692 ft | 401 kts | 61° |
| 2026-04-21 14:24 | -17.71071 | -40.45404 | 32292 ft | 398 kts | 61° |
| 2026-04-21 14:24 | -17.69743 | -40.42912 | 31842 ft | 395 kts | 61° |
| 2026-04-21 14:24 | -17.68398 | -40.40391 | 31374 ft | 394 kts | 61° |
| 2026-04-21 14:24 | -17.67067 | -40.37898 | 30909 ft | 392 kts | 61° |
| 2026-04-21 14:25 | -17.65743 | -40.35418 | 30441 ft | 390 kts | 61° |
| 2026-04-21 14:25 | -17.64420 | -40.32940 | 29978 ft | 388 kts | 60° |
| 2026-04-21 14:25 | -17.63114 | -40.30497 | 29519 ft | 386 kts | 60° |
| 2026-04-21 14:25 | -17.62250 | -40.28879 | 29214 ft | 384 kts | 60° |
| 2026-04-21 14:26 | -17.60503 | -40.25613 | 28597 ft | 382 kts | 60° |
| 2026-04-21 14:26 | -17.59644 | -40.24007 | 28293 ft | 380 kts | 60° |
| 2026-04-21 14:26 | -17.58367 | -40.21621 | 27841 ft | 378 kts | 60° |
| 2026-04-21 14:26 | -17.56644 | -40.18401 | 27232 ft | 376 kts | 60° |
| 2026-04-21 14:27 | -17.55378 | -40.16037 | 26778 ft | 374 kts | 60° |
| 2026-04-21 14:27 | -17.54930 | -40.15200 | 26640 ft | 373 kts | 60° |
| 2026-04-21 14:27 | -17.54087 | -40.13626 | 26314 ft | 373 kts | 60° |
| 2026-04-21 14:27 | -17.52415 | -40.10508 | 25709 ft | 370 kts | 60° |
| 2026-04-21 14:28 | -17.51575 | -40.08941 | 25411 ft | 369 kts | 60° |
| 2026-04-21 14:28 | -17.50326 | -40.06611 | 24962 ft | 367 kts | 60° |
| 2026-04-21 14:28 | -17.48677 | -40.03542 | 24139 ft | 358 kts | 62° |
| 2026-04-21 14:28 | -17.47861 | -40.02022 | 23802 ft | 352 kts | 62° |
| 2026-04-21 14:29 | -17.46688 | -39.99842 | 23372 ft | 342 kts | 64° |
| 2026-04-21 14:29 | -17.45532 | -39.97693 | 22983 ft | 336 kts | 64° |
| 2026-04-21 14:29 | -17.43839 | -39.94829 | 22728 ft | 364 kts | 56° |
| 2026-04-21 14:29 | -17.42037 | -39.92885 | 22311 ft | 376 kts | 39° |
| 2026-04-21 14:30 | -17.39826 | -39.91434 | 21884 ft | 377 kts | 31° |
| 2026-04-21 14:30 | -17.38278 | -39.90579 | 21575 ft | 377 kts | 29° |
| 2026-04-21 14:30 | -17.35143 | -39.88951 | 20962 ft | 376 kts | 27° |
| 2026-04-21 14:30 | -17.32803 | -39.87750 | 20510 ft | 375 kts | 27° |
| 2026-04-21 14:31 | -17.30457 | -39.86530 | 20053 ft | 375 kts | 27° |
| 2026-04-21 14:31 | -17.28131 | -39.85306 | 19590 ft | 374 kts | 27° |
| 2026-04-21 14:31 | -17.26586 | -39.84485 | 19285 ft | 373 kts | 27° |
| 2026-04-21 14:31 | -17.23515 | -39.82841 | 18680 ft | 371 kts | 27° |
| 2026-04-21 14:32 | -17.21962 | -39.82005 | 18368 ft | 370 kts | 27° |
| 2026-04-21 14:32 | -17.18932 | -39.80370 | 17769 ft | 367 kts | 27° |
| 2026-04-21 14:32 | -17.17436 | -39.79562 | 17473 ft | 365 kts | 27° |
| 2026-04-21 14:32 | -17.14450 | -39.77947 | 16879 ft | 361 kts | 27° |
| 2026-04-21 14:33 | -17.12220 | -39.76743 | 16432 ft | 358 kts | 27° |
| 2026-04-21 14:33 | -17.10014 | -39.75552 | 15991 ft | 355 kts | 27° |
| 2026-04-21 14:33 | -17.08548 | -39.74760 | 15695 ft | 352 kts | 27° |
| 2026-04-21 14:33 | -17.05665 | -39.73204 | 15116 ft | 348 kts | 27° |
| 2026-04-21 14:34 | -17.04250 | -39.72440 | 14829 ft | 346 kts | 27° |
| 2026-04-21 14:34 | -17.01424 | -39.70889 | 14269 ft | 341 kts | 29° |
| 2026-04-21 14:34 | -16.99374 | -39.69645 | 13847 ft | 338 kts | 31° |
| 2026-04-21 14:34 | -16.97369 | -39.68361 | 13411 ft | 332 kts | 31° |
| 2026-04-21 14:35 | -16.95435 | -39.67107 | 13009 ft | 324 kts | 32° |
| 2026-04-21 14:35 | -16.94177 | -39.66296 | 12743 ft | 318 kts | 31° |
| 2026-04-21 14:35 | -16.92300 | -39.65095 | 12347 ft | 311 kts | 31° |
| 2026-04-21 14:35 | -16.89887 | -39.63567 | 11851 ft | 301 kts | 31° |
| 2026-04-21 14:36 | -16.88098 | -39.62441 | 11465 ft | 295 kts | 31° |
| 2026-04-21 14:36 | -16.86935 | -39.61712 | 11229 ft | 293 kts | 31° |
| 2026-04-21 14:36 | -16.84605 | -39.60252 | 10744 ft | 290 kts | 31° |
| 2026-04-21 14:36 | -16.82896 | -39.59180 | 10368 ft | 288 kts | 31° |
| 2026-04-21 14:37 | -16.81191 | -39.58110 | 10028 ft | 284 kts | 31° |
| 2026-04-21 14:37 | -16.79525 | -39.57064 | 9844 ft | 275 kts | 31° |
| 2026-04-21 14:37 | -16.77881 | -39.56033 | 9481 ft | 275 kts | 31° |
| 2026-04-21 14:37 | -16.76238 | -39.55003 | 9138 ft | 272 kts | 31° |
| 2026-04-21 14:38 | -16.74617 | -39.53986 | 8801 ft | 270 kts | 32° |
| 2026-04-21 14:38 | -16.73582 | -39.53283 | 8581 ft | 268 kts | 35° |
| 2026-04-21 14:38 | -16.71581 | -39.51753 | 8143 ft | 265 kts | 38° |
| 2026-04-21 14:38 | -16.70130 | -39.50581 | 7818 ft | 262 kts | 39° |
| 2026-04-21 14:39 | -16.69162 | -39.49799 | 7599 ft | 261 kts | 39° |
| 2026-04-21 14:39 | -16.67729 | -39.48651 | 7278 ft | 259 kts | 38° |
| 2026-04-21 14:39 | -16.65824 | -39.47138 | 6874 ft | 256 kts | 38° |
| 2026-04-21 14:39 | -16.64420 | -39.46027 | 6533 ft | 254 kts | 39° |
| 2026-04-21 14:40 | -16.63013 | -39.44916 | 6224 ft | 251 kts | 39° |
| 2026-04-21 14:40 | -16.61638 | -39.43829 | 5918 ft | 248 kts | 39° |
| 2026-04-21 14:40 | -16.60269 | -39.42748 | 5602 ft | 244 kts | 39° |
| 2026-04-21 14:40 | -16.58919 | -39.41680 | 5298 ft | 238 kts | 39° |
| 2026-04-21 14:41 | -16.57620 | -39.40653 | 5006 ft | 233 kts | 39° |
| 2026-04-21 14:41 | -16.56346 | -39.39645 | 4730 ft | 228 kts | 39° |
| 2026-04-21 14:41 | -16.55101 | -39.38661 | 4531 ft | 218 kts | 39° |
| 2026-04-21 14:41 | -16.53931 | -39.37738 | 4450 ft | 202 kts | 39° |
| 2026-04-21 14:42 | -16.52843 | -39.36879 | 4367 ft | 188 kts | 39° |
| 2026-04-21 14:42 | -16.52166 | -39.36344 | 4326 ft | 182 kts | 40° |
| 2026-04-21 14:42 | -16.51242 | -39.35441 | 4234 ft | 183 kts | 59° |
| 2026-04-21 14:42 | -16.50703 | -39.33794 | 3966 ft | 180 kts | 80° |
| 2026-04-21 14:43 | -16.50425 | -39.32525 | 3754 ft | 175 kts | 77° |
| 2026-04-21 14:43 | -16.50213 | -39.31717 | 3635 ft | 175 kts | 76° |
| 2026-04-21 14:43 | -16.49783 | -39.30140 | 3376 ft | 167 kts | 76° |
| 2026-04-21 14:43 | -16.49470 | -39.28983 | 3193 ft | 166 kts | 76° |
| 2026-04-21 14:44 | -16.49158 | -39.27815 | 3032 ft | 165 kts | 76° |
| 2026-04-21 14:44 | -16.48952 | -39.27049 | 2961 ft | 166 kts | 76° |
| 2026-04-21 14:44 | -16.48540 | -39.25520 | 2805 ft | 166 kts | 76° |
| 2026-04-21 14:44 | -16.48335 | -39.24749 | 2743 ft | 159 kts | 76° |
| 2026-04-21 14:45 | -16.48041 | -39.23649 | 2613 ft | 156 kts | 76° |
| 2026-04-21 14:45 | -16.47752 | -39.22579 | 2481 ft | 153 kts | 76° |
| 2026-04-21 14:45 | -16.47464 | -39.21497 | 2325 ft | 154 kts | 77° |
| 2026-04-21 14:45 | -16.47086 | -39.20063 | 2128 ft | 152 kts | 76° |
| 2026-04-21 14:46 | -16.46793 | -39.19002 | 1994 ft | 155 kts | 77° |
| 2026-04-21 14:46 | -16.46597 | -39.18293 | 1915 ft | 147 kts | 76° |
| 2026-04-21 14:46 | -16.46226 | -39.16911 | 1761 ft | 151 kts | 77° |
| 2026-04-21 14:46 | -16.45951 | -39.15870 | 1516 ft | 148 kts | 77° |
| 2026-04-21 14:47 | -16.45675 | -39.14850 | 1277 ft | 144 kts | 76° |
| 2026-04-21 14:47 | -16.45488 | -39.14160 | 1149 ft | 152 kts | 76° |
| 2026-04-21 14:47 | -16.45205 | -39.13108 | 980 ft | 150 kts | 76° |
| 2026-04-21 14:47 | -16.44860 | -39.11729 | 702 ft | 149 kts | 77° |
| 2026-04-21 14:48 | -16.44583 | -39.10681 | 553 ft | 147 kts | 74° |
| 2026-04-21 14:48 | -16.44379 | -39.10009 | 402 ft | 147 kts | 75° |
| 2026-04-21 14:48 | -16.44097 | -39.08975 | 243 ft | 148 kts | 76° |
| 2026-04-21 14:48 | -16.43830 | -39.07970 | 186 ft | 145 kts | 74° |
| 2026-04-21 14:49 | -16.43456 | -39.06624 | 984 ft | 142 kts | 73° |
| 2026-04-21 14:49 | -16.43234 | -39.05946 | 1193 ft | 161 kts | 72° |
| 2026-04-21 14:49 | -16.42812 | -39.04735 | 1527 ft | 188 kts | 71° |
| 2026-04-21 14:49 | -16.42077 | -39.03098 | 2418 ft | 190 kts | 59° |
| 2026-04-21 14:50 | -16.41508 | -39.02360 | 2676 ft | 204 kts | 47° |
| 2026-04-21 14:50 | -16.40233 | -39.01570 | 2938 ft | 225 kts | 19° |
| 2026-04-21 14:50 | -16.38670 | -39.01376 | 2956 ft | 227 kts | 358° |
| 2026-04-21 14:50 | -16.37112 | -39.01677 | 2949 ft | 228 kts | 340° |
| 2026-04-21 14:51 | -16.35811 | -39.02578 | 2949 ft | 226 kts | 310° |
| 2026-04-21 14:51 | -16.34898 | -39.04511 | 2953 ft | 223 kts | 282° |
| 2026-04-21 14:51 | -16.34800 | -39.05574 | 2943 ft | 221 kts | 263° |
| 2026-04-21 14:51 | -16.35655 | -39.07454 | 2958 ft | 215 kts | 232° |
| 2026-04-21 14:52 | -16.36210 | -39.08326 | 2951 ft | 216 kts | 238° |
| 2026-04-21 14:52 | -16.36809 | -39.09759 | 2955 ft | 217 kts | 252° |
| 2026-04-21 14:52 | -16.37208 | -39.11806 | 2954 ft | 219 kts | 259° |
| 2026-04-21 14:52 | -16.37362 | -39.12851 | 2954 ft | 218 kts | 260° |
| 2026-04-21 14:53 | -16.37602 | -39.14413 | 2954 ft | 218 kts | 259° |
| 2026-04-21 14:53 | -16.37944 | -39.16514 | 2958 ft | 220 kts | 259° |
| 2026-04-21 14:53 | -16.38198 | -39.18075 | 2957 ft | 217 kts | 259° |
| 2026-04-21 14:53 | -16.38366 | -39.19099 | 2955 ft | 217 kts | 259° |
| 2026-04-21 14:54 | -16.38703 | -39.21166 | 2957 ft | 217 kts | 259° |
| 2026-04-21 14:54 | -16.38870 | -39.22194 | 2957 ft | 216 kts | 259° |
| 2026-04-21 14:54 | -16.39120 | -39.23735 | 2957 ft | 216 kts | 259° |
| 2026-04-21 14:54 | -16.39374 | -39.25287 | 2955 ft | 217 kts | 259° |
| 2026-04-21 14:55 | -16.39711 | -39.27353 | 2954 ft | 218 kts | 259° |
| 2026-04-21 14:55 | -16.39878 | -39.28390 | 2956 ft | 217 kts | 259° |
| 2026-04-21 14:55 | -16.40211 | -39.30471 | 2959 ft | 219 kts | 259° |
| 2026-04-21 14:55 | -16.40378 | -39.31504 | 2958 ft | 219 kts | 259° |
| 2026-04-21 14:56 | -16.40742 | -39.33057 | 2955 ft | 217 kts | 245° |
| 2026-04-21 14:56 | -16.41609 | -39.34304 | 2961 ft | 219 kts | 220° |
| 2026-04-21 14:56 | -16.42972 | -39.35245 | 2984 ft | 244 kts | 204° |
| 2026-04-21 14:56 | -16.45029 | -39.35845 | 2852 ft | 222 kts | 178° |
| 2026-04-21 14:57 | -16.46048 | -39.35710 | 2626 ft | 217 kts | 162° |
| 2026-04-21 14:57 | -16.47365 | -39.35107 | 2269 ft | 202 kts | 149° |
| 2026-04-21 14:57 | -16.48491 | -39.34257 | 1937 ft | 195 kts | 135° |
| 2026-04-21 14:57 | -16.49408 | -39.32760 | 1945 ft | 176 kts | 110° |
| 2026-04-21 14:58 | -16.49645 | -39.31955 | 1955 ft | 172 kts | 104° |
| 2026-04-21 14:58 | -16.49791 | -39.30296 | 1955 ft | 171 kts | 84° |
| 2026-04-21 14:58 | -16.49625 | -39.29473 | 1964 ft | 176 kts | 76° |
| 2026-04-21 14:58 | -16.49170 | -39.27858 | 1958 ft | 173 kts | 75° |
| 2026-04-21 14:59 | -16.48953 | -39.27058 | 1956 ft | 174 kts | 76° |
| 2026-04-21 14:59 | -16.48526 | -39.25453 | 1955 ft | 173 kts | 76° |
| 2026-04-21 14:59 | -16.48305 | -39.24637 | 1958 ft | 175 kts | 77° |
| 2026-04-21 14:59 | -16.47875 | -39.23041 | 1871 ft | 166 kts | 76° |
| 2026-04-21 15:00 | -16.47670 | -39.22280 | 1829 ft | 161 kts | 76° |
| 2026-04-21 15:00 | -16.47268 | -39.20778 | 1769 ft | 163 kts | 77° |
| 2026-04-21 15:00 | -16.47068 | -39.20027 | 1718 ft | 164 kts | 77° |
| 2026-04-21 15:00 | -16.46764 | -39.18875 | 1642 ft | 162 kts | 76° |
| 2026-04-21 15:01 | -16.46460 | -39.17741 | 1580 ft | 162 kts | 75° |
| 2026-04-21 15:01 | -16.46157 | -39.16637 | 1512 ft | 164 kts | 75° |
| 2026-04-21 15:01 | -16.45861 | -39.15559 | 1369 ft | 147 kts | 76° |
| 2026-04-21 15:01 | -16.45494 | -39.14207 | 896 ft | 142 kts | 74° |
| 2026-04-21 15:02 | -16.45222 | -39.13211 | 695 ft | 142 kts | 75° |
| 2026-04-21 15:02 | -16.44967 | -39.12219 | 572 ft | 143 kts | 77° |
| 2026-04-21 15:02 | -16.44806 | -39.11538 | 454 ft | 146 kts | 77° |
| 2026-04-21 15:02 | -16.44442 | -39.10210 | 344 ft | 146 kts | 75° |
| 2026-04-21 15:03 | -16.44251 | -39.09546 | 312 ft | 142 kts | 74° |
| 2026-04-21 15:03 | -16.43978 | -39.08542 | 186 ft | 140 kts | 75° |
| 2026-04-21 15:03 | -16.43751 | -39.07701 | 152 ft | 84 kts | 75° |
| 2026-04-21 15:03 | -16.43646 | -39.07300 | 146 ft | 16 kts | 77° |
| 2026-04-21 15:04 | -16.43619 | -39.07213 | 144 ft | 12 kts | 322° |
| 2026-04-21 15:04 | -16.43626 | -39.07267 | 145 ft | 11 kts | 245° |
| 2026-04-21 15:04 | -16.43654 | -39.07341 | 147 ft | 11 kts | 251° |
| 2026-04-21 15:04 | -16.43687 | -39.07465 | 149 ft | 15 kts | 255° |
| 2026-04-21 15:05 | -16.43721 | -39.07587 | 150 ft | 19 kts | 254° |
| 2026-04-21 15:05 | -16.43788 | -39.07840 | 154 ft | 24 kts | 254° |
| 2026-04-21 15:05 | -16.43837 | -39.08019 | 157 ft | 25 kts | 254° |
| 2026-04-21 15:06 | -16.43875 | -39.08134 | 158 ft | 12 kts | 223° |
| 2026-04-21 15:06 | -16.43948 | -39.08131 | 157 ft | 4 kts | 164° |
| 2026-04-21 15:06 | -16.43979 | -39.08122 | 156 ft | 2 kts | 164° |
| 2026-04-21 15:06 | -16.44002 | -39.08115 | 155 ft | 6 kts | 161° |
| 2026-04-21 15:07 | -16.44035 | -39.08103 | 154 ft | 6 kts | 163° |
| 2026-04-21 15:07 | -16.44059 | -39.08096 | 153 ft | 2 kts | 165° |
| 2026-04-21 15:07 | -16.44066 | -39.08094 | 152 ft | 0 kts | 165° |